• Join FlightAware (Why Join?)
  • Login
  • US Flag 
05:36PM EDT


 

Airport Tracker/Info


-or-


 

Live Flight TrackerFlight Track Log ✈ N379BE ✈ 02-May-2012 ✈ KBKX - KBIS

Flight Track Log - Related Links

Times and Time Zones

All times are in EDT time to prevent confusion due to time zone crossing. See the N379BE flight status page for this flight to view local times or setup timezone preferences in your user account.

Time Position Orientation Groundspeed Altitude Reporting Facility
EDT Latitude Longitude Course Direction KTS MPH feet Rate Location/Type
03:48PM 44.4217 -96.9614 313° West 168 193 6,900  Level Minneapolis Center
03:49PM 44.4475 -97.0008 315° West 146 168 7,800 540 Climbing Minneapolis Center
03:50PM 44.4714 -97.0344 314° West 141 162 8,000 120 Climbing Minneapolis Center
03:51PM 44.5053 -97.0831 312° West 151 174 8,100  Climbing Minneapolis Center
03:52PM 44.5389 -97.1347 314° West 167 192 8,100  Level Minneapolis Center
03:53PM 44.5708 -97.1806 311° West 167 192 8,100  Level Minneapolis Center
03:54PM 44.6006 -97.2292 316° Northwest 167 192 8,100  Level Minneapolis Center
03:55PM 44.6344 -97.2750 309° West 172 198 8,100  Level Minneapolis Center
03:56PM 44.6658 -97.3297 307° West 167 192 8,100  Level Minneapolis Center
03:57PM 44.6933 -97.3814 317° Northwest 167 192 8,100  Level Minneapolis Center
03:58PM 44.7311 -97.4306 314° West 167 192 8,100  Level Minneapolis Center
03:59PM 44.7647 -97.4800 307° West 172 198 8,100  Level Minneapolis Center
04:00PM 44.7961 -97.5378 315° West 177 204 8,100  Level Minneapolis Center
04:01PM 44.8317 -97.5872 312° West 177 204 8,100  Level Minneapolis Center
04:02PM 44.8672 -97.6425 310° West 182 209 8,100  Level Minneapolis Center
04:03PM 44.8947 -97.6883 316° Northwest 182 209 8,100  Level Minneapolis Center
04:04PM 44.9342 -97.7414 312° West 182 209 8,100  Level Minneapolis Center
04:05PM 44.9697 -97.7969 314° West 187 215 8,100  Level Minneapolis Center
04:06PM 45.0053 -97.8494 313° West 187 215 8,100  Level Minneapolis Center
04:07PM 45.0406 -97.9022 310° West 187 215 8,100  Level Minneapolis Center
04:08PM 45.0719 -97.9547 309° West 187 215 8,100  Level Minneapolis Center
04:09PM 45.1069 -98.0164 317° Northwest 187 215 8,100  Level Minneapolis Center
04:10PM 45.1444 -98.0667 315° West 187 215 8,100  Level Minneapolis Center
04:11PM 45.1819 -98.1197 308° West 187 215 8,100  Level Minneapolis Center
04:12PM 45.2128 -98.1753 315° West 187 215 8,100  Level Minneapolis Center
04:13PM 45.2483 -98.2256 310° West 187 215 8,100  Level Minneapolis Center
04:14PM 45.2814 -98.2817 312° West 187 215 8,100  Level Minneapolis Center
04:15PM 45.3164 -98.3378 313° West 187 215 8,100  Level Minneapolis Center
04:16PM 45.3517 -98.3911 313° West 187 215 8,100  Level Minneapolis Center
04:17PM 45.3869 -98.4444 308° West 187 215 8,100  Level Minneapolis Center
04:18PM 45.4178 -98.5006 313° West 187 215 8,100  Level Minneapolis Center
04:19PM 45.4528 -98.5542 313° West 187 215 8,100  Level Minneapolis Center
04:20PM 45.4881 -98.6078 310° West 187 215 8,100  Level Minneapolis Center
04:21PM 45.5208 -98.6642 311° West 187 215 8,100  Level Minneapolis Center
04:22PM 45.5539 -98.7178 314° West 187 215 8,100  Level Minneapolis Center
04:23PM 45.5908 -98.7717 311° West 187 215 8,100  Level Minneapolis Center
04:24PM 45.6239 -98.8253 311° West 187 215 8,100  Level Minneapolis Center
04:25PM 45.6567 -98.8792 311° West 187 215 8,100  Level Minneapolis Center
04:26PM 45.6894 -98.9328 311° West 182 209 8,100  Level Minneapolis Center
04:27PM 45.7222 -98.9867 313° West 182 209 8,100  Level Minneapolis Center
04:28PM 45.7553 -99.0375 311° West 182 209 8,100 -120 Level Minneapolis Center
04:29PM 45.7881 -99.0917 311° West 182 209 7,900 -240 Descending Minneapolis Center
04:30PM 45.8208 -99.1456 309° West 182 209 7,700 -300 Descending Minneapolis Center
04:31PM 45.8533 -99.2028 313° West 182 209 7,400 -300 Descending Minneapolis Center
04:32PM 45.8881 -99.2572 313° West 182 209 7,200 -300 Descending Minneapolis Center
04:33PM 45.9247 -99.3147 311° West 187 215 6,900 -240 Descending Minneapolis Center
04:34PM 45.9594 -99.3722 309° West 187 215 6,800 -180 Descending Minneapolis Center
04:35PM 45.9919 -99.4297 311° West 187 215 6,600 -240 Descending Minneapolis Center
04:36PM 46.0264 -99.4872 311° West 187 215 6,400 -240 Descending Minneapolis Center
04:37PM 46.0608 -99.5450 314° West 187 215 6,200 -180 Descending Minneapolis Center
04:38PM 46.0975 -99.6000 311° West 187 215 6,100 -60 Descending Minneapolis Center
04:39PM 46.1300 -99.6547 309° West 187 215 6,100  Level Minneapolis Center
04:40PM 46.1642 -99.7156 311° West 187 215 6,100  Level Minneapolis Center
04:41PM 46.1967 -99.7703 310° West 187 215 6,100  Level Minneapolis Center
04:42PM 46.2289 -99.8253 312° West 187 215 6,100  Level Minneapolis Center
04:43PM 46.2636 -99.8806 310° West 187 215 6,100  Level Minneapolis Center
04:44PM 46.2958 -99.9353 309° West 187 215 6,100  Level Minneapolis Center
04:45PM 46.3281 -99.9933 312° West 187 215 6,100  Level Minneapolis Center
04:46PM 46.3622 -100.0489 309° West 187 215 6,100  Level Minneapolis Center
04:47PM 46.3944 -100.1069 314° West 187 215 6,100  Level Minneapolis Center
04:48PM 46.4269 -100.1561 310° West 187 215 6,100  Level Minneapolis Center
04:49PM 46.4592 -100.2114 312° West 182 209 6,100 -240 Level Minneapolis Center
04:50PM 46.4953 -100.2703 308° West 187 215 5,700 -300 Descending Minneapolis Center
04:51PM 46.5236 -100.3222 310° West 187 215 5,600 120 Descending Minneapolis Center
04:52PM 46.5575 -100.3811 310° West 187 215 6,000 180 Climbing Minneapolis Center
04:53PM 46.5897 -100.4367 310° West 187 215 6,000  Level Minneapolis Center
04:54PM 46.6028 -100.4594 360° North 187 215 6,000  Level Minneapolis Center
04:55PM 46.6028 -100.4594 360° North 187 215 6,000  Level Minneapolis Center
04:56PM 46.6028 -100.4594 360° North 187 215 6,000  Level Minneapolis Center
04:57PM 46.6028 -100.4594 360° North 187 215 6,000  Level Minneapolis Center
04:58PM 46.6028 -100.4594 360° North 187 215 6,000  Level Minneapolis Center
04:59PM 46.6028 -100.4594 360° North 187 215 6,000  Level Minneapolis Center